Time;durP1;ratioP1;P1;durP2;ratioP2;P2;SDS_P1;SDS_P2;PMS_P1;PMS_P2;Temp;Humidity;BMP_temperature;BMP_pressure;BME280_temperature;BME280_humidity;BME280_pressure;Samples;Min_cycle;Max_cycle;Signal;HPM_P1;HPM_P2
2022/12/11 00:02:05;;;;;;;8.30;5.50;;;;;;;10.65;79.73;95106.17;107737;1270;70168;-70
2022/12/11 00:04:35;;;;;;;14.90;7.90;;;;;;;10.69;79.57;95104.09;107874;1270;68545;-70
2022/12/11 00:07:04;;;;;;;12.90;7.70;;;;;;;10.73;79.48;95098.35;107672;1270;59810;-71
2022/12/11 00:09:34;;;;;;;10.90;6.10;;;;;;;10.78;79.01;95087.79;107729;1266;59705;-71
2022/12/11 00:12:04;;;;;;;11.10;5.20;;;;;;;10.84;79.02;95083.09;107678;1271;72009;-71
2022/12/11 00:14:33;;;;;;;7.70;3.90;;;;;;;10.89;78.73;95074.02;107741;1270;69160;-71
2022/12/11 00:17:02;;;;;;;7.30;3.70;;;;;;;10.93;78.60;95071.23;107657;1269;70345;-71
2022/12/11 00:19:31;;;;;;;7.80;3.90;;;;;;;11.00;78.37;95069.66;107638;1268;59708;-69
2022/12/11 00:22:00;;;;;;;6.90;4.40;;;;;;;11.03;78.25;95056.05;107646;1270;59663;-69
2022/12/11 00:24:30;;;;;;;11.80;5.20;;;;;;;11.03;77.97;95046.73;107659;1270;71227;-70
2022/12/11 00:26:59;;;;;;;7.10;4.00;;;;;;;11.00;78.14;95049.88;107666;1270;69828;-71
2022/12/11 00:29:27;;;;;;;9.40;5.10;;;;;;;10.97;77.91;95044.96;107614;1270;69930;-70
2022/12/11 00:31:56;;;;;;;6.60;3.70;;;;;;;10.98;77.77;95043.29;107651;1270;59779;-71
2022/12/11 00:34:26;;;;;;;5.60;3.50;;;;;;;11.01;77.78;95049.95;107683;1270;59677;-70
2022/12/11 00:36:55;;;;;;;7.60;3.90;;;;;;;11.02;77.83;95048.67;107637;1269;71900;-69
2022/12/11 00:39:24;;;;;;;6.90;3.60;;;;;;;11.02;77.46;95036.77;107710;1268;70017;-70
2022/12/11 00:41:53;;;;;;;6.00;3.20;;;;;;;11.03;77.46;95028.02;107690;1266;69485;-70
2022/12/11 00:44:23;;;;;;;7.60;3.40;;;;;;;11.05;77.38;95031.23;107674;1269;60019;-70
2022/12/11 00:46:52;;;;;;;5.60;3.10;;;;;;;11.11;77.28;95032.31;107666;1269;59671;-71
2022/12/11 00:49:22;;;;;;;4.50;3.10;;;;;;;11.16;77.39;95026.95;107633;1269;70675;-71
2022/12/11 00:51:51;;;;;;;4.70;2.80;;;;;;;11.20;76.90;95021.48;107657;1269;69701;-71
2022/12/11 00:54:20;;;;;;;5.10;3.10;;;;;;;11.22;76.88;95015.33;107616;1271;68982;-71
2022/12/11 00:56:49;;;;;;;5.20;3.60;;;;;;;11.23;76.76;95007.59;107653;1266;59787;-71
2022/12/11 00:59:18;;;;;;;7.10;3.40;;;;;;;11.21;76.26;95002.04;107679;1266;59767;-71
2022/12/11 01:01:48;;;;;;;6.90;3.50;;;;;;;11.20;76.31;95003.07;107661;1268;71374;-71
2022/12/11 01:04:16;;;;;;;6.30;3.30;;;;;;;11.18;76.66;94996.41;107752;1262;69384;-71
2022/12/11 01:06:46;;;;;;;6.50;3.20;;;;;;;11.17;76.34;94985.00;107630;1270;69387;-70
2022/12/11 01:12:05;;;;;;;6.30;3.00;;;;;;;11.15;76.19;94972.66;107691;1270;59716;-71
2022/12/11 01:14:35;;;;;;;5.50;3.60;;;;;;;11.14;76.26;94969.70;107497;1270;71416;-72
2022/12/11 01:17:04;;;;;;;4.00;2.80;;;;;;;11.12;76.26;94967.52;107704;1269;70016;-71
2022/12/11 01:19:33;;;;;;;4.10;3.10;;;;;;;11.13;76.33;94964.40;107674;1270;69797;-70
2022/12/11 01:22:02;;;;;;;5.30;3.10;;;;;;;11.15;76.40;94963.66;107636;1270;59710;-70
2022/12/11 01:24:34;;;;;;;6.50;3.80;;;;;;;11.16;76.46;94956.41;107684;1270;59720;-70
2022/12/11 01:27:03;;;;;;;6.10;3.20;;;;;;;11.17;76.37;94948.27;107641;1270;70561;-70
2022/12/11 01:29:34;;;;;;;5.90;3.20;;;;;;;11.18;76.12;94942.94;107456;1270;69004;-70
2022/12/11 01:32:04;;;;;;;6.00;3.80;;;;;;;11.18;76.21;94933.66;107636;1270;68360;-70
2022/12/11 01:34:33;;;;;;;4.30;3.20;;;;;;;11.21;76.04;94929.51;107697;1270;59736;-70
2022/12/11 01:37:03;;;;;;;5.70;3.20;;;;;;;11.26;75.93;94927.17;107686;1269;59704;-70
2022/12/11 01:39:32;;;;;;;5.10;3.00;;;;;;;11.29;75.84;94924.06;107720;1268;71279;-70
2022/12/11 01:42:01;;;;;;;5.10;3.20;;;;;;;11.33;75.95;94921.73;107656;1270;69075;-70
2022/12/11 01:44:31;;;;;;;5.30;2.90;;;;;;;11.36;75.35;94908.45;107456;1268;68496;-70
2022/12/11 01:47:00;;;;;;;6.20;3.00;;;;;;;11.41;75.34;94900.94;107673;1266;59692;-70
2022/12/11 01:49:31;;;;;;;6.60;3.50;;;;;;;11.44;74.53;94894.95;107659;1266;59691;-70
2022/12/11 01:52:05;;;;;;;4.10;2.30;;;;;;;11.54;73.59;94890.84;107660;1270;72030;-71
2022/12/11 01:54:36;;;;;;;2.90;2.20;;;;;;;11.61;74.02;94891.79;107611;1269;69743;-70
2022/12/11 01:57:08;;;;;;;7.00;2.80;;;;;;;11.65;73.54;94887.39;107616;1270;69624;-70
2022/12/11 01:59:42;;;;;;;4.00;2.50;;;;;;;11.69;73.72;94879.92;107663;1264;59840;-70
2022/12/11 02:02:20;;;;;;;5.20;2.90;;;;;;;11.72;73.21;94877.52;107703;1269;59769;-70
2022/12/11 02:04:49;;;;;;;4.80;2.70;;;;;;;11.78;72.76;94870.73;107652;1265;71371;-70
2022/12/11 02:07:19;;;;;;;3.50;2.30;;;;;;;11.83;72.85;94866.03;107645;1268;69710;-71
2022/12/11 02:09:49;;;;;;;3.20;2.20;;;;;;;11.88;72.30;94866.30;107641;1270;69111;-69
2022/12/11 02:12:19;;;;;;;4.20;2.40;;;;;;;11.95;72.11;94870.18;107681;1268;59796;-69
2022/12/11 02:15:02;;;;;;;5.60;2.50;;;;;;;12.00;72.31;94866.66;107704;1269;59739;-71
2022/12/11 02:17:37;;;;;;;3.90;2.00;;;;;;;12.01;73.17;94859.63;107739;1269;72009;-70
2022/12/11 02:20:13;;;;;;;4.20;2.10;;;;;;;12.00;73.41;94854.38;107702;1268;69741;-70
2022/12/11 02:22:54;;;;;;;3.20;2.10;;;;;;;11.97;73.84;94858.70;107658;1264;69314;-71
2022/12/11 02:25:46;;;;;;;5.00;2.30;;;;;;;11.92;74.72;94857.30;107598;1266;59708;-70
2022/12/11 02:28:19;;;;;;;3.90;3.10;;;;;;;11.86;74.57;94853.96;107655;1268;59700;-70
2022/12/11 02:31:15;;;;;;;3.30;2.20;;;;;;;11.82;74.82;94854.90;107639;1266;70469;-69
2022/12/11 02:34:00;;;;;;;4.00;2.20;;;;;;;11.80;74.87;94853.13;107707;1266;68506;-70
2022/12/11 02:36:56;;;;;;;4.00;2.50;;;;;;;11.76;75.19;94850.41;107663;1270;69712;-70
2022/12/11 02:39:26;;;;;;;4.20;2.20;;;;;;;11.73;75.37;94847.42;107624;1266;59827;-70
2022/12/11 02:41:57;;;;;;;3.40;2.30;;;;;;;11.70;75.78;94844.98;107715;1268;59740;-70
2022/12/11 02:44:30;;;;;;;3.20;2.10;;;;;;;11.69;75.79;94841.11;107731;1267;70574;-70
2022/12/11 02:47:03;;;;;;;4.40;2.50;;;;;;;11.68;76.18;94834.40;107681;1269;69846;-71
2022/12/11 02:49:33;;;;;;;3.70;2.10;;;;;;;11.66;76.30;94832.20;107642;1268;69157;-71
2022/12/11 02:52:05;;;;;;;6.00;2.60;;;;;;;11.61;77.60;94824.40;107659;1266;60094;-71
2022/12/11 02:54:37;;;;;;;5.40;2.70;;;;;;;11.57;77.56;94825.23;107718;1268;59708;-70
2022/12/11 02:57:27;;;;;;;4.70;2.40;;;;;;;11.54;77.61;94819.71;107723;1270;69487;-71
2022/12/11 02:59:57;;;;;;;3.60;2.50;;;;;;;11.49;78.09;94811.40;107655;1269;68598;-70
2022/12/11 03:02:27;;;;;;;4.30;2.30;;;;;;;11.45;78.19;94811.46;107682;1270;69275;-71
2022/12/11 03:04:58;;;;;;;3.80;2.00;;;;;;;11.40;79.05;94806.80;107645;1268;59678;-70
2022/12/11 03:07:32;;;;;;;4.00;2.10;;;;;;;11.36;78.45;94801.84;107658;1268;60170;-70
2022/12/11 03:10:03;;;;;;;3.40;2.20;;;;;;;11.31;79.02;94800.55;107662;1268;70694;-70
2022/12/11 03:12:35;;;;;;;5.00;2.20;;;;;;;11.26;79.91;94799.40;107663;1269;69836;-70
2022/12/11 03:15:10;;;;;;;4.20;2.30;;;;;;;11.22;79.87;94800.55;107669;1269;69258;-70
2022/12/11 03:18:14;;;;;;;3.80;2.50;;;;;;;11.19;80.76;94801.27;107667;1269;59751;-70
2022/12/11 03:20:50;;;;;;;2.90;2.10;;;;;;;11.16;80.48;94801.42;107657;1266;59715;-70
2022/12/11 03:23:25;;;;;;;4.50;2.10;;;;;;;11.13;80.79;94805.84;107617;1266;71443;-70
2022/12/11 03:26:03;;;;;;;5.00;2.30;;;;;;;11.08;81.77;94809.67;107671;1269;69734;-70
2022/12/11 03:28:55;;;;;;;3.90;2.30;;;;;;;11.05;82.30;94815.44;107650;1270;67567;-70
2022/12/11 03:31:42;;;;;;;3.20;2.10;;;;;;;11.04;81.90;94812.50;107449;1270;59694;-70
2022/12/11 03:34:23;;;;;;;4.30;2.10;;;;;;;11.02;81.90;94806.77;107750;1264;59740;-70
2022/12/11 03:36:56;;;;;;;2.50;1.70;;;;;;;11.00;82.17;94808.74;107735;1269;71340;-70
2022/12/11 03:39:32;;;;;;;3.10;1.90;;;;;;;11.00;81.61;94808.05;107701;1269;69110;-69
2022/12/11 03:42:05;;;;;;;5.70;3.30;;;;;;;10.98;81.51;94801.07;107661;1269;69833;-69
2022/12/11 03:44:35;;;;;;;4.30;2.00;;;;;;;10.96;81.36;94796.49;107678;1269;59728;-69
2022/12/11 03:47:07;;;;;;;;;;;;;;;10.93;82.93;94799.06;107767;1266;59771;-70
2022/12/11 03:49:41;;;;;;;3.50;1.90;;;;;;;10.90;82.41;94791.23;107739;1269;71193;-70
2022/12/11 03:52:13;;;;;;;2.50;2.00;;;;;;;10.85;84.20;94771.98;107682;1269;69217;-70
2022/12/11 03:54:46;;;;;;;4.70;2.30;;;;;;;10.77;85.84;94768.91;107767;1266;69511;-69
2022/12/11 03:57:20;;;;;;;2.80;2.20;;;;;;;10.68;86.85;94773.66;107758;1269;59763;-69
2022/12/11 03:59:49;;;;;;;3.70;2.30;;;;;;;10.63;85.64;94770.25;107715;1265;59664;-69
2022/12/11 04:02:19;;;;;;;;;;;;;;;10.60;85.21;94769.09;107687;1269;71433;-70
2022/12/11 04:04:50;;;;;;;4.30;2.40;;;;;;;10.56;85.51;94765.34;107730;1269;69188;-69
2022/12/11 04:07:19;;;;;;;3.80;2.60;;;;;;;10.52;86.91;94761.97;107749;1268;69932;-70
2022/12/11 04:09:48;;;;;;;3.40;2.70;;;;;;;10.46;89.73;94762.48;107736;1268;59779;-70
2022/12/11 04:12:18;;;;;;;5.80;2.90;;;;;;;10.41;89.40;94771.10;107675;1265;59626;-70
2022/12/11 04:15:02;;;;;;;4.70;3.10;;;;;;;10.36;87.89;94753.48;107690;1264;72001;-69
2022/12/11 04:26:07;;;;;;;4.60;3.30;;;;;;;10.19;90.52;94741.48;107704;1265;59672;-69
2022/12/11 04:28:37;;;;;;;5.50;3.30;;;;;;;10.14;90.89;94742.25;107686;1266;71443;-68
2022/12/11 04:31:09;;;;;;;;;;;;;;;10.10;91.31;94737.48;107713;1268;69840;-69
2022/12/11 04:33:39;;;;;;;5.30;3.10;;;;;;;10.06;92.75;94740.17;107692;1269;69217;-71
2022/12/11 04:36:10;;;;;;;4.90;3.30;;;;;;;10.04;94.63;94735.59;107630;1265;59754;-70
2022/12/11 04:38:40;;;;;;;4.00;2.90;;;;;;;10.01;93.89;94730.19;107715;1270;59774;-69
2022/12/11 04:41:12;;;;;;;5.10;3.40;;;;;;;9.97;93.93;94723.27;107676;1269;71306;-69
2022/12/11 04:43:43;;;;;;;4.80;3.20;;;;;;;9.93;92.26;94721.33;107631;1266;69112;-69
2022/12/11 04:46:19;;;;;;;5.30;3.10;;;;;;;9.90;92.46;94721.52;107678;1268;69304;-69
2022/12/11 04:48:49;;;;;;;4.30;2.70;;;;;;;9.87;93.12;94714.33;107657;1268;59723;-70
2022/12/11 04:51:27;;;;;;;5.40;2.90;;;;;;;9.86;94.96;94712.67;107673;1269;59709;-70
2022/12/11 04:53:57;;;;;;;;;;;;;;;9.84;95.09;94708.44;107694;1269;71379;-69
2022/12/11 04:56:26;;;;;;;7.20;3.00;;;;;;;9.80;94.89;94704.12;107682;1270;69818;-69
2022/12/11 04:58:55;;;;;;;5.20;3.50;;;;;;;9.79;95.51;94705.50;107684;1269;68268;-69
2022/12/11 05:01:25;;;;;;;7.30;4.50;;;;;;;9.78;96.86;94703.91;107651;1266;59791;-69
2022/12/11 05:03:54;;;;;;;5.60;4.00;;;;;;;9.75;96.19;94702.98;107673;1265;59672;-69
2022/12/11 05:06:24;;;;;;;5.50;3.40;;;;;;;9.74;96.71;94695.77;107686;1268;70645;-70
2022/12/11 05:08:53;;;;;;;10.00;8.60;;;;;;;9.74;96.55;94699.30;107692;1270;69818;-70
2022/12/11 05:11:23;;;;;;;13.50;9.10;;;;;;;9.75;97.50;94695.55;107642;1266;68497;-69
2022/12/11 05:13:52;;;;;;;10.80;6.80;;;;;;;9.76;95.40;94704.13;107659;1266;59773;-69
2022/12/11 05:16:22;;;;;;;8.50;5.50;;;;;;;9.77;95.10;94700.29;107675;1266;59671;-69
2022/12/11 05:18:51;;;;;;;6.50;4.20;;;;;;;9.80;94.49;94699.27;107686;1269;72015;-70
2022/12/11 05:21:20;;;;;;;5.90;4.00;;;;;;;9.84;94.15;94693.63;107652;1266;70094;-69
2022/12/11 05:23:49;;;;;;;8.40;5.50;;;;;;;9.86;95.83;94689.10;107603;1268;69594;-70
2022/12/11 05:26:19;;;;;;;7.80;5.60;;;;;;;9.86;95.31;94688.58;107649;1268;59769;-70
2022/12/11 05:28:53;;;;;;;7.50;5.50;;;;;;;9.86;95.81;94684.73;107670;1269;59725;-70
2022/12/11 05:31:25;;;;;;;6.10;4.30;;;;;;;9.85;95.48;94688.80;107610;1266;72043;-69
2022/12/11 05:33:54;;;;;;;6.80;4.30;;;;;;;9.85;95.48;94691.42;107663;1269;69770;-70
2022/12/11 05:36:26;;;;;;;7.20;3.80;;;;;;;9.84;95.90;94688.02;107669;1268;68481;-70
2022/12/11 05:38:57;;;;;;;5.50;3.90;;;;;;;9.84;96.98;94690.46;107711;1268;59730;-70
2022/12/11 05:41:28;;;;;;;5.20;3.70;;;;;;;9.85;96.30;94688.19;107659;1265;60211;-70
2022/12/11 05:43:58;;;;;;;4.80;3.10;;;;;;;9.87;96.72;94684.81;107661;1269;71440;-73
2022/12/11 05:46:29;;;;;;;6.40;3.50;;;;;;;9.89;94.92;94673.77;107651;1265;69370;-71
2022/12/11 05:49:01;;;;;;;7.40;4.50;;;;;;;9.90;94.46;94678.50;107658;1269;68463;-71
2022/12/11 05:51:34;;;;;;;6.90;5.10;;;;;;;9.90;96.03;94686.09;107687;1267;59794;-69
2022/12/11 05:54:04;;;;;;;4.90;3.70;;;;;;;9.90;95.26;94675.17;107788;1269;59767;-69
2022/12/11 05:56:34;;;;;;;5.20;3.40;;;;;;;9.90;95.71;94686.54;107645;1269;70039;-69
2022/12/11 05:59:05;;;;;;;4.80;3.10;;;;;;;9.91;95.09;94687.42;107743;1268;69155;-69
2022/12/11 06:01:40;;;;;;;4.30;3.10;;;;;;;9.91;95.04;94672.81;107690;1266;69473;-69
2022/12/11 06:04:11;;;;;;;6.80;3.90;;;;;;;9.93;95.29;94683.16;107676;1261;59707;-70
2022/12/11 06:06:40;;;;;;;5.70;3.30;;;;;;;9.92;95.62;94677.85;107723;1266;59685;-70
2022/12/11 06:09:13;;;;;;;5.50;4.10;;;;;;;9.91;96.46;94681.92;107735;1265;71505;-70
2022/12/11 06:11:42;;;;;;;6.70;4.30;;;;;;;9.90;96.17;94690.30;107713;1269;69829;-70
2022/12/11 06:14:11;;;;;;;10.10;6.60;;;;;;;9.94;95.89;94695.63;107698;1266;69351;-70
2022/12/11 06:16:41;;;;;;;8.20;6.60;;;;;;;9.93;95.61;94698.50;107692;1269;59724;-69
2022/12/11 06:19:14;;;;;;;9.50;6.70;;;;;;;9.90;95.58;94699.66;107675;1266;59752;-69
2022/12/11 06:21:45;;;;;;;12.00;8.20;;;;;;;9.92;95.43;94707.31;107646;1269;71395;-70
2022/12/11 06:24:14;;;;;;;10.90;5.80;;;;;;;9.96;95.66;94718.67;107783;1269;69207;-69
2022/12/11 06:26:43;;;;;;;8.30;4.80;;;;;;;10.02;95.44;94722.55;107704;1269;69724;-70
2022/12/11 06:29:12;;;;;;;7.30;3.50;;;;;;;10.00;95.05;94727.83;107636;1266;59782;-69
2022/12/11 06:31:41;;;;;;;6.30;3.30;;;;;;;10.02;94.88;94734.72;107654;1270;59694;-70
2022/12/11 06:34:12;;;;;;;4.40;3.00;;;;;;;10.07;95.52;94735.41;107632;1269;71372;-70
2022/12/11 06:36:41;;;;;;;6.70;3.50;;;;;;;10.15;95.20;94742.48;107691;1269;69495;-71
2022/12/11 06:39:09;;;;;;;6.20;3.00;;;;;;;10.24;94.54;94747.55;107677;1264;69384;-69
2022/12/11 06:41:39;;;;;;;5.70;3.20;;;;;;;10.36;94.07;94756.80;107647;1266;59772;-70
2022/12/11 06:44:08;;;;;;;7.00;4.10;;;;;;;10.44;93.71;94768.48;107652;1265;59711;-69
2022/12/11 06:46:37;;;;;;;7.40;4.90;;;;;;;10.50;93.55;94781.19;107636;1268;71205;-70
2022/12/11 06:49:06;;;;;;;6.50;3.90;;;;;;;10.51;93.84;94789.45;107726;1266;69008;-69
2022/12/11 06:51:35;;;;;;;6.30;4.30;;;;;;;10.51;94.16;94795.06;107814;1266;69103;-70
2022/12/11 06:54:04;;;;;;;5.90;3.80;;;;;;;10.50;95.65;94799.34;107718;1266;59734;-70
2022/12/11 06:56:33;;;;;;;5.60;3.60;;;;;;;10.46;96.53;94813.63;107743;1269;59721;-69
2022/12/11 06:59:02;;;;;;;6.40;3.50;;;;;;;10.38;97.78;94833.23;107730;1269;71597;-68
2022/12/11 07:01:35;;;;;;;19.80;9.40;;;;;;;10.30;98.29;94853.11;107625;1267;69176;-69
2022/12/11 07:04:04;;;;;;;7.00;4.50;;;;;;;10.27;98.04;94852.20;107672;1266;69110;-69
2022/12/11 07:06:33;;;;;;;9.10;4.60;;;;;;;10.18;99.17;94850.75;107715;1266;59730;-69
2022/12/11 07:09:06;;;;;;;7.90;5.60;;;;;;;10.17;99.04;94858.30;107729;1266;59785;-68
2022/12/11 07:11:34;;;;;;;7.10;5.40;;;;;;;10.11;99.41;94867.98;107761;1266;71385;-67
2022/12/11 07:14:03;;;;;;;8.90;5.30;;;;;;;10.07;99.87;94866.11;107686;1266;68659;-68
2022/12/11 07:16:32;;;;;;;8.80;4.90;;;;;;;10.01;100.00;94873.05;107725;1265;68318;-68
2022/12/11 07:19:01;;;;;;;7.20;4.80;;;;;;;9.94;100.00;94879.12;107691;1266;59767;-68
2022/12/11 07:21:31;;;;;;;6.60;4.20;;;;;;;9.89;100.00;94891.72;107692;1266;59679;-68
2022/12/11 07:23:59;;;;;;;7.50;5.40;;;;;;;9.85;99.99;94892.88;107734;1265;72001;-68
2022/12/11 07:26:28;;;;;;;8.00;5.20;;;;;;;9.83;100.00;94892.52;107741;1266;68226;-68
2022/12/11 07:28:58;;;;;;;7.20;4.90;;;;;;;9.80;100.00;94894.83;107672;1266;69341;-69
2022/12/11 07:31:28;;;;;;;7.60;4.70;;;;;;;9.78;100.00;94898.11;107697;1268;59662;-67
2022/12/11 07:34:03;;;;;;;5.00;4.40;;;;;;;9.79;100.00;94898.39;107732;1269;59785;-69
2022/12/11 07:36:33;;;;;;;7.20;5.10;;;;;;;9.80;100.00;94902.13;107698;1269;71876;-67
2022/12/11 07:39:02;;;;;;;;;;;;;;;9.83;100.00;94907.92;107633;1269;68570;-67
2022/12/11 07:41:31;;;;;;;7.60;5.10;;;;;;;9.85;100.00;94919.86;107715;1266;68375;-68
2022/12/11 07:44:00;;;;;;;11.40;5.30;;;;;;;9.86;100.00;94928.59;107732;1266;59750;-67
2022/12/11 07:46:31;;;;;;;6.90;4.60;;;;;;;9.89;100.00;94930.86;107727;1268;59718;-67
2022/12/11 07:49:00;;;;;;;7.20;4.30;;;;;;;9.94;99.83;94932.38;107754;1266;71069;-68
2022/12/11 07:51:31;;;;;;;7.50;4.60;;;;;;;9.99;99.58;94931.73;107699;1268;69289;-69
2022/12/11 07:54:00;;;;;;;;;;;;;;;10.07;98.88;94934.46;107702;1266;69225;-69
2022/12/11 07:56:30;;;;;;;6.60;4.00;;;;;;;10.09;99.38;94938.73;107656;1265;59761;-68
2022/12/11 07:59:04;;;;;;;5.20;2.80;;;;;;;10.17;97.70;94932.31;107708;1265;59742;-71
2022/12/11 08:01:35;;;;;;;5.50;4.10;;;;;;;10.32;96.32;94949.02;107686;1268;72006;-72
2022/12/11 08:04:07;;;;;;;4.20;3.20;;;;;;;10.42;94.57;94953.64;107672;1265;69901;-71
2022/12/11 08:06:38;;;;;;;5.10;2.50;;;;;;;10.51;94.06;94957.45;107664;1268;69087;-69
2022/12/11 08:09:11;;;;;;;4.30;3.30;;;;;;;10.52;94.29;94968.89;107737;1268;59795;-70
2022/12/11 08:11:49;;;;;;;3.30;1.80;;;;;;;10.52;93.07;94975.08;107658;1265;59695;-69
2022/12/11 08:14:18;;;;;;;2.50;1.70;;;;;;;10.42;92.28;94980.09;107760;1268;71345;-69
2022/12/11 08:16:48;;;;;;;2.50;1.60;;;;;;;10.39;91.97;94986.96;107685;1269;70207;-68
2022/12/11 08:19:17;;;;;;;2.40;1.50;;;;;;;10.36;89.62;94986.12;107666;1269;69800;-70
2022/12/11 08:21:45;;;;;;;2.80;1.80;;;;;;;10.35;90.70;94996.56;107694;1265;59775;-69
2022/12/11 08:24:19;;;;;;;1.80;1.60;;;;;;;10.32;89.13;95014.08;107733;1265;59746;-67
2022/12/11 08:26:48;;;;;;;4.00;2.60;;;;;;;10.16;89.26;95037.32;107733;1269;72028;-70
2022/12/11 08:29:16;;;;;;;8.60;4.20;;;;;;;10.09;88.83;95031.65;107698;1265;69747;-69
2022/12/11 08:31:46;;;;;;;9.60;5.30;;;;;;;10.05;86.87;95042.59;107716;1268;68934;-66
2022/12/11 08:34:14;;;;;;;10.00;5.40;;;;;;;9.89;86.30;95047.24;107679;1268;59769;-67
2022/12/11 08:36:43;;;;;;;9.10;5.00;;;;;;;9.83;85.93;95056.58;107676;1268;59714;-68
2022/12/11 08:39:12;;;;;;;20.50;9.70;;;;;;;9.68;84.75;95062.13;107670;1269;71347;-67
2022/12/11 08:41:41;;;;;;;1.60;1.00;;;;;;;9.54;82.13;95066.27;107673;1269;70524;-68
2022/12/11 08:44:11;;;;;;;2.10;1.10;;;;;;;9.39;81.87;95063.11;107679;1266;69295;-67
2022/12/11 08:46:45;;;;;;;0.70;0.70;;;;;;;9.37;81.34;95074.48;107708;1269;59714;-67
2022/12/11 08:49:13;;;;;;;1.30;1.00;;;;;;;9.36;80.39;95075.86;107702;1268;59768;-67
2022/12/11 08:51:42;;;;;;;0.80;0.80;;;;;;;9.34;79.92;95082.08;107671;1266;71361;-69
2022/12/11 08:54:11;;;;;;;0.80;0.80;;;;;;;9.28;80.05;95086.41;107683;1268;69179;-69
2022/12/11 08:56:39;;;;;;;0.70;0.60;;;;;;;9.15;78.55;95096.64;107659;1268;69316;-68
2022/12/11 08:59:08;;;;;;;0.80;0.70;;;;;;;8.94;78.76;95099.83;107669;1269;59740;-69
2022/12/11 09:01:36;;;;;;;0.70;0.70;;;;;;;8.79;78.71;95119.08;107635;1268;59626;-68
2022/12/11 09:04:05;;;;;;;0.70;0.60;;;;;;;8.66;77.05;95123.64;107712;1269;71204;-69
2022/12/11 09:06:34;;;;;;;2.20;0.90;;;;;;;8.58;77.40;95141.20;107733;1265;68387;-67
2022/12/11 09:09:03;;;;;;;0.60;0.60;;;;;;;8.43;76.51;95171.13;107648;1265;69300;-68
2022/12/11 09:11:34;;;;;;;2.10;0.70;;;;;;;8.24;76.43;95171.86;107689;1266;59696;-67
2022/12/11 09:14:04;;;;;;;0.60;0.60;;;;;;;8.13;75.85;95189.89;107611;1269;59675;-69
2022/12/11 09:16:39;;;;;;;0.90;0.60;;;;;;;7.95;76.78;95184.55;107673;1269;71382;-68
2022/12/11 09:19:13;;;;;;;0.50;0.50;;;;;;;7.75;76.59;95180.11;107658;1265;69706;-68
2022/12/11 09:21:42;;;;;;;0.60;0.60;;;;;;;7.48;76.71;95188.40;107721;1269;69793;-68
2022/12/11 09:24:12;;;;;;;0.80;0.60;;;;;;;7.37;77.43;95185.61;107735;1266;59782;-67
2022/12/11 09:26:41;;;;;;;0.70;0.60;;;;;;;7.31;77.76;95177.14;107673;1269;59800;-66
2022/12/11 09:29:11;;;;;;;1.10;0.80;;;;;;;7.30;77.12;95174.36;107726;1265;70345;-67
2022/12/11 09:31:41;;;;;;;0.80;0.70;;;;;;;7.09;77.92;95167.81;107668;1268;69760;-68
2022/12/11 09:34:12;;;;;;;0.70;0.70;;;;;;;7.03;78.39;95178.55;107723;1266;70291;-70
2022/12/11 09:36:42;;;;;;;1.10;0.70;;;;;;;6.97;79.56;95183.48;107697;1269;59770;-68
2022/12/11 09:39:13;;;;;;;0.90;0.80;;;;;;;7.01;79.03;95169.48;107683;1265;59727;-68
2022/12/11 09:42:00;;;;;;;1.10;0.80;;;;;;;6.99;78.49;95165.85;107737;1269;71377;-66
2022/12/11 09:44:34;;;;;;;1.40;0.80;;;;;;;6.98;79.10;95179.41;107705;1265;69808;-66
2022/12/11 09:47:16;;;;;;;1.20;0.90;;;;;;;6.97;78.58;95176.02;107537;1269;69301;-69
2022/12/11 09:49:46;;;;;;;1.10;0.90;;;;;;;7.08;77.83;95181.09;107721;1265;59693;-68
2022/12/11 09:52:18;;;;;;;1.30;1.20;;;;;;;7.10;78.28;95166.73;107797;1266;59728;-67
2022/12/11 09:54:58;;;;;;;0.90;0.90;;;;;;;7.20;77.54;95170.80;107683;1268;71866;-68
2022/12/11 09:57:47;;;;;;;2.00;1.00;;;;;;;7.09;77.61;95170.11;107675;1265;68471;-68
2022/12/11 10:00:15;;;;;;;1.40;0.90;;;;;;;6.97;78.32;95171.19;107696;1266;68641;-68
2022/12/11 10:03:08;;;;;;;2.00;1.10;;;;;;;6.87;79.39;95181.96;107680;1269;59850;-65
2022/12/11 10:05:50;;;;;;;2.70;1.60;;;;;;;6.84;78.72;95185.56;107688;1266;59671;-70
2022/12/11 10:08:22;;;;;;;3.90;3.60;;;;;;;6.90;79.21;95201.32;107712;1268;71899;-69
2022/12/11 10:10:56;;;;;;;3.00;2.40;;;;;;;6.89;79.39;95209.03;107621;1269;69842;-69
2022/12/11 10:13:56;;;;;;;2.50;1.90;;;;;;;6.97;78.74;95199.23;107668;1266;69923;-67
2022/12/11 10:16:46;;;;;;;2.80;2.60;;;;;;;7.20;78.01;95196.73;107677;1268;59784;-67
2022/12/11 10:19:21;;;;;;;2.40;1.90;;;;;;;7.32;77.85;95201.84;107709;1265;59705;-69
2022/12/11 10:21:51;;;;;;;1.20;1.10;;;;;;;7.40;77.37;95215.44;107665;1268;72010;-68
2022/12/11 10:24:48;;;;;;;1.20;1.00;;;;;;;8.07;75.89;95217.66;107363;1268;450044;-68
2022/12/11 10:27:38;;;;;;;4.10;1.60;;;;;;;9.37;72.62;95220.69;107621;1266;69597;-68
2022/12/11 10:30:34;;;;;;;1.20;1.00;;;;;;;10.44;67.15;95241.75;107660;1266;59631;-68
2022/12/11 10:33:31;;;;;;;1.70;0.90;;;;;;;11.39;63.83;95233.70;107684;1269;59719;-68
2022/12/11 10:36:00;;;;;;;2.20;1.60;;;;;;;12.08;60.91;95239.77;107655;1269;70659;-68
2022/12/11 10:38:42;;;;;;;2.60;1.30;;;;;;;12.27;59.22;95241.78;107664;1268;69217;-67
2022/12/11 10:41:17;;;;;;;1.20;0.90;;;;;;;12.58;58.02;95250.52;107635;1269;69804;-68
2022/12/11 10:43:48;;;;;;;2.00;1.10;;;;;;;13.13;56.48;95259.19;107688;1268;59782;-68
2022/12/11 10:46:23;;;;;;;1.10;0.90;;;;;;;12.55;55.97;95257.16;107395;1268;59772;-65
2022/12/11 10:48:58;;;;;;;1.50;1.10;;;;;;;12.08;56.71;95260.58;107669;1268;71986;-66
2022/12/11 10:51:29;;;;;;;2.20;1.10;;;;;;;11.31;58.74;95262.76;107711;1266;69545;-67
2022/12/11 10:54:32;;;;;;;1.20;1.00;;;;;;;11.14;60.66;95273.04;107679;1266;68754;-68
2022/12/11 10:57:03;;;;;;;2.10;1.40;;;;;;;12.29;58.22;95261.92;107687;1265;59755;-67
2022/12/11 10:59:49;;;;;;;2.50;0.90;;;;;;;12.91;55.69;95259.01;107686;1269;59711;-68
2022/12/11 11:02:25;;;;;;;1.80;1.00;;;;;;;12.58;55.15;95268.44;107663;1265;70608;-67
2022/12/11 11:04:56;;;;;;;1.70;1.50;;;;;;;12.12;55.39;95275.79;107698;1265;69200;-69
2022/12/11 11:07:28;;;;;;;1.10;1.00;;;;;;;11.97;56.15;95272.72;107679;1266;69778;-70
2022/12/11 11:10:09;;;;;;;1.20;0.90;;;;;;;11.53;57.35;95273.84;107706;1265;59722;-68
2022/12/11 11:12:48;;;;;;;1.20;1.10;;;;;;;12.11;55.97;95285.80;107671;1269;59735;-70
2022/12/11 11:15:29;;;;;;;1.20;0.80;;;;;;;12.45;54.08;95289.66;107645;1269;70515;-70
2022/12/11 11:18:10;;;;;;;1.00;0.80;;;;;;;12.80;53.10;95286.90;107688;1269;68258;-70
2022/12/11 11:20:46;;;;;;;3.20;1.80;;;;;;;13.68;52.08;95295.30;107672;1265;69287;-69
2022/12/11 11:23:17;;;;;;;7.30;4.80;;;;;;;13.62;51.34;95302.72;107664;1265;59813;-68
2022/12/11 11:25:52;;;;;;;1.20;0.90;;;;;;;13.88;50.76;95297.04;107658;1269;59683;-68
2022/12/11 11:28:29;;;;;;;1.70;1.10;;;;;;;13.93;50.09;95298.79;107701;1259;72370;-67
2022/12/11 11:31:09;;;;;;;1.70;1.10;;;;;;;13.10;51.55;95305.45;107659;1265;69407;-68
2022/12/11 11:34:02;;;;;;;2.30;1.70;;;;;;;12.64;52.54;95309.51;107700;1268;68772;-69
2022/12/11 11:36:33;;;;;;;1.80;0.80;;;;;;;11.10;56.67;95303.11;107646;1266;59768;-68
2022/12/11 11:39:01;;;;;;;0.80;0.80;;;;;;;10.38;58.99;95297.90;107578;1270;59732;-67
2022/12/11 11:41:39;;;;;;;1.10;0.80;;;;;;;10.13;59.35;95298.56;107682;1265;72017;-68
2022/12/11 11:44:14;;;;;;;1.10;0.90;;;;;;;10.23;59.48;95298.77;107696;1269;69055;-69
2022/12/11 11:46:48;;;;;;;1.50;0.90;;;;;;;9.84;60.80;95305.21;107650;1266;69136;-68
2022/12/11 11:49:45;;;;;;;1.30;0.90;;;;;;;9.70;61.75;95309.88;107664;1265;59758;-69
2022/12/11 11:52:37;;;;;;;1.40;1.00;;;;;;;9.12;62.27;95306.67;107662;1269;59729;-69
2022/12/11 11:55:14;;;;;;;1.80;1.50;;;;;;;9.07;62.93;95311.46;107673;1265;71484;-68
2022/12/11 11:58:06;;;;;;;2.30;2.00;;;;;;;9.06;62.65;95325.70;107685;1266;69207;-67
2022/12/11 12:00:34;;;;;;;1.20;1.00;;;;;;;8.94;63.07;95327.36;107700;1269;69260;-67
2022/12/11 12:03:14;;;;;;;4.10;3.60;;;;;;;8.88;64.12;95335.32;107674;1268;59747;-68
2022/12/11 12:05:51;;;;;;;2.00;1.30;;;;;;;8.74;63.94;95340.84;107673;1269;59720;-68
2022/12/11 12:08:26;;;;;;;1.90;1.40;;;;;;;8.63;64.09;95344.00;107661;1267;71901;-68